sensor_id;sensor_type;location;lat;lon;timestamp;temperature;humidity
55642;DHT22;41509;53.108;6.100;2022-12-20T00:01:50;9.70;99.90
55642;DHT22;41509;53.108;6.100;2022-12-20T00:04:16;9.70;99.90
55642;DHT22;41509;53.108;6.100;2022-12-20T00:06:41;9.70;99.90
55642;DHT22;41509;53.108;6.100;2022-12-20T00:09:08;9.70;99.90
55642;DHT22;41509;53.108;6.100;2022-12-20T00:11:34;9.70;99.90
55642;DHT22;41509;53.108;6.100;2022-12-20T00:14:00;9.70;99.90
55642;DHT22;41509;53.108;6.100;2022-12-20T00:16:27;9.70;99.90
55642;DHT22;41509;53.108;6.100;2022-12-20T00:18:56;9.70;99.90
55642;DHT22;41509;53.108;6.100;2022-12-20T00:21:22;9.80;99.90
55642;DHT22;41509;53.108;6.100;2022-12-20T00:23:48;9.70;99.90
55642;DHT22;41509;53.108;6.100;2022-12-20T00:26:16;9.70;99.90
55642;DHT22;41509;53.108;6.100;2022-12-20T00:28:43;9.70;99.90
55642;DHT22;41509;53.108;6.100;2022-12-20T00:31:12;9.70;99.90
55642;DHT22;41509;53.108;6.100;2022-12-20T00:33:38;9.70;99.90
55642;DHT22;41509;53.108;6.100;2022-12-20T00:36:04;9.70;99.90
55642;DHT22;41509;53.108;6.100;2022-12-20T00:38:31;9.70;99.90
55642;DHT22;41509;53.108;6.100;2022-12-20T00:41:12;9.70;99.90
55642;DHT22;41509;53.108;6.100;2022-12-20T00:43:38;9.70;99.90
55642;DHT22;41509;53.108;6.100;2022-12-20T00:46:05;9.80;99.90
55642;DHT22;41509;53.108;6.100;2022-12-20T00:48:32;9.80;99.90
55642;DHT22;41509;53.108;6.100;2022-12-20T00:50:58;9.80;99.90
55642;DHT22;41509;53.108;6.100;2022-12-20T00:53:24;9.80;99.90
55642;DHT22;41509;53.108;6.100;2022-12-20T00:55:50;9.80;99.90
55642;DHT22;41509;53.108;6.100;2022-12-20T00:58:15;9.90;99.90
55642;DHT22;41509;53.108;6.100;2022-12-20T01:00:44;9.90;99.90
55642;DHT22;41509;53.108;6.100;2022-12-20T01:03:09;9.90;99.90
55642;DHT22;41509;53.108;6.100;2022-12-20T01:05:35;9.90;99.90
55642;DHT22;41509;53.108;6.100;2022-12-20T01:08:01;9.90;99.90
55642;DHT22;41509;53.108;6.100;2022-12-20T01:10:26;9.90;99.90
55642;DHT22;41509;53.108;6.100;2022-12-20T01:12:52;9.90;99.90
55642;DHT22;41509;53.108;6.100;2022-12-20T01:15:18;9.90;99.90
55642;DHT22;41509;53.108;6.100;2022-12-20T01:17:45;9.90;99.90
55642;DHT22;41509;53.108;6.100;2022-12-20T01:20:11;9.90;99.90
55642;DHT22;41509;53.108;6.100;2022-12-20T01:22:37;9.90;99.90
55642;DHT22;41509;53.108;6.100;2022-12-20T01:25:03;9.90;99.90
55642;DHT22;41509;53.108;6.100;2022-12-20T01:27:29;9.90;99.90
55642;DHT22;41509;53.108;6.100;2022-12-20T01:29:54;9.90;99.90
55642;DHT22;41509;53.108;6.100;2022-12-20T01:32:20;9.90;99.90
55642;DHT22;41509;53.108;6.100;2022-12-20T01:34:46;9.90;99.90
55642;DHT22;41509;53.108;6.100;2022-12-20T01:37:12;9.90;99.90
55642;DHT22;41509;53.108;6.100;2022-12-20T01:39:37;10.00;99.90
55642;DHT22;41509;53.108;6.100;2022-12-20T01:42:03;10.00;99.90
55642;DHT22;41509;53.108;6.100;2022-12-20T01:44:52;9.90;99.90
55642;DHT22;41509;53.108;6.100;2022-12-20T01:47:15;9.90;99.90
55642;DHT22;41509;53.108;6.100;2022-12-20T01:49:46;10.00;99.90
55642;DHT22;41509;53.108;6.100;2022-12-20T01:52:14;10.00;99.90
55642;DHT22;41509;53.108;6.100;2022-12-20T01:54:42;9.90;99.90
55642;DHT22;41509;53.108;6.100;2022-12-20T01:57:28;9.90;99.90
55642;DHT22;41509;53.108;6.100;2022-12-20T01:59:56;9.90;99.90
55642;DHT22;41509;53.108;6.100;2022-12-20T02:02:22;9.90;99.90
55642;DHT22;41509;53.108;6.100;2022-12-20T02:04:48;9.90;99.90
55642;DHT22;41509;53.108;6.100;2022-12-20T02:07:19;9.90;99.90
55642;DHT22;41509;53.108;6.100;2022-12-20T02:09:46;9.90;99.90
55642;DHT22;41509;53.108;6.100;2022-12-20T02:12:42;9.90;99.90
55642;DHT22;41509;53.108;6.100;2022-12-20T02:15:23;9.90;99.90
55642;DHT22;41509;53.108;6.100;2022-12-20T02:26:55;10.00;99.90
55642;DHT22;41509;53.108;6.100;2022-12-20T02:29:34;10.00;99.90
55642;DHT22;41509;53.108;6.100;2022-12-20T02:32:25;10.00;99.90
55642;DHT22;41509;53.108;6.100;2022-12-20T02:34:52;10.10;99.90
55642;DHT22;41509;53.108;6.100;2022-12-20T02:37:19;10.10;99.90
55642;DHT22;41509;53.108;6.100;2022-12-20T02:39:45;10.10;99.90
55642;DHT22;41509;53.108;6.100;2022-12-20T02:42:13;10.10;99.90
55642;DHT22;41509;53.108;6.100;2022-12-20T02:44:51;10.10;99.90
55642;DHT22;41509;53.108;6.100;2022-12-20T02:47:40;10.10;99.90
55642;DHT22;41509;53.108;6.100;2022-12-20T02:50:08;10.10;99.90
55642;DHT22;41509;53.108;6.100;2022-12-20T02:52:35;10.00;99.90
55642;DHT22;41509;53.108;6.100;2022-12-20T02:55:02;10.00;99.90
55642;DHT22;41509;53.108;6.100;2022-12-20T02:57:36;10.00;99.90
55642;DHT22;41509;53.108;6.100;2022-12-20T03:02:33;10.00;99.90
55642;DHT22;41509;53.108;6.100;2022-12-20T03:05:21;9.90;99.90
55642;DHT22;41509;53.108;6.100;2022-12-20T03:07:48;9.90;99.90
55642;DHT22;41509;53.108;6.100;2022-12-20T03:10:15;9.90;99.90
55642;DHT22;41509;53.108;6.100;2022-12-20T03:12:41;9.80;99.90
55642;DHT22;41509;53.108;6.100;2022-12-20T03:15:07;9.80;99.90
55642;DHT22;41509;53.108;6.100;2022-12-20T03:17:34;9.80;99.90
55642;DHT22;41509;53.108;6.100;2022-12-20T03:19:59;9.80;99.90
55642;DHT22;41509;53.108;6.100;2022-12-20T03:22:25;9.80;99.90
55642;DHT22;41509;53.108;6.100;2022-12-20T03:24:51;9.80;99.90
55642;DHT22;41509;53.108;6.100;2022-12-20T03:27:17;9.80;99.90
55642;DHT22;41509;53.108;6.100;2022-12-20T03:29:43;9.80;99.90
55642;DHT22;41509;53.108;6.100;2022-12-20T03:32:10;9.80;99.90
55642;DHT22;41509;53.108;6.100;2022-12-20T03:34:36;9.80;99.90
55642;DHT22;41509;53.108;6.100;2022-12-20T03:37:02;9.80;99.90
55642;DHT22;41509;53.108;6.100;2022-12-20T03:39:28;9.80;99.90
55642;DHT22;41509;53.108;6.100;2022-12-20T03:41:54;9.80;99.90
55642;DHT22;41509;53.108;6.100;2022-12-20T03:44:19;9.80;99.90
55642;DHT22;41509;53.108;6.100;2022-12-20T03:46:45;9.80;99.90
55642;DHT22;41509;53.108;6.100;2022-12-20T03:49:10;9.70;99.90
55642;DHT22;41509;53.108;6.100;2022-12-20T03:51:36;9.80;99.90
55642;DHT22;41509;53.108;6.100;2022-12-20T03:54:02;9.80;99.90
55642;DHT22;41509;53.108;6.100;2022-12-20T03:56:27;9.80;99.90
55642;DHT22;41509;53.108;6.100;2022-12-20T03:58:53;9.80;99.90
55642;DHT22;41509;53.108;6.100;2022-12-20T04:01:23;9.80;99.90
55642;DHT22;41509;53.108;6.100;2022-12-20T04:03:49;9.80;99.90
55642;DHT22;41509;53.108;6.100;2022-12-20T04:06:16;9.80;99.90
55642;DHT22;41509;53.108;6.100;2022-12-20T04:08:42;9.80;99.90
55642;DHT22;41509;53.108;6.100;2022-12-20T04:11:07;9.80;99.90
55642;DHT22;41509;53.108;6.100;2022-12-20T04:13:46;9.80;99.90
55642;DHT22;41509;53.108;6.100;2022-12-20T04:16:14;9.80;99.90
55642;DHT22;41509;53.108;6.100;2022-12-20T04:18:40;9.80;99.90
55642;DHT22;41509;53.108;6.100;2022-12-20T04:21:06;9.80;99.90
55642;DHT22;41509;53.108;6.100;2022-12-20T04:23:34;9.80;99.90
55642;DHT22;41509;53.108;6.100;2022-12-20T04:26:01;9.80;99.90
55642;DHT22;41509;53.108;6.100;2022-12-20T04:28:27;9.90;99.90
55642;DHT22;41509;53.108;6.100;2022-12-20T04:30:53;9.80;99.90
55642;DHT22;41509;53.108;6.100;2022-12-20T04:33:18;9.90;99.90
55642;DHT22;41509;53.108;6.100;2022-12-20T04:35:44;9.90;99.90
55642;DHT22;41509;53.108;6.100;2022-12-20T04:38:10;9.90;99.90
55642;DHT22;41509;53.108;6.100;2022-12-20T04:40:35;9.90;99.90
55642;DHT22;41509;53.108;6.100;2022-12-20T04:43:01;9.90;99.90
55642;DHT22;41509;53.108;6.100;2022-12-20T04:45:26;9.90;99.90
55642;DHT22;41509;53.108;6.100;2022-12-20T04:47:52;9.90;99.90
55642;DHT22;41509;53.108;6.100;2022-12-20T04:50:18;9.90;99.90
55642;DHT22;41509;53.108;6.100;2022-12-20T04:52:44;10.00;99.90
55642;DHT22;41509;53.108;6.100;2022-12-20T04:55:28;9.90;99.90
55642;DHT22;41509;53.108;6.100;2022-12-20T04:57:54;10.00;99.90
55642;DHT22;41509;53.108;6.100;2022-12-20T05:00:20;10.00;99.90
55642;DHT22;41509;53.108;6.100;2022-12-20T05:02:46;10.00;99.90
55642;DHT22;41509;53.108;6.100;2022-12-20T05:05:12;10.10;99.90
55642;DHT22;41509;53.108;6.100;2022-12-20T05:07:38;10.00;99.90
55642;DHT22;41509;53.108;6.100;2022-12-20T05:10:05;10.00;99.90
55642;DHT22;41509;53.108;6.100;2022-12-20T05:12:30;10.00;99.90
55642;DHT22;41509;53.108;6.100;2022-12-20T05:14:56;10.10;99.90
55642;DHT22;41509;53.108;6.100;2022-12-20T05:17:24;10.10;99.90
55642;DHT22;41509;53.108;6.100;2022-12-20T05:19:50;10.10;99.90
55642;DHT22;41509;53.108;6.100;2022-12-20T05:22:15;10.10;99.90
55642;DHT22;41509;53.108;6.100;2022-12-20T05:24:59;10.10;99.90
55642;DHT22;41509;53.108;6.100;2022-12-20T05:27:44;10.10;99.90
55642;DHT22;41509;53.108;6.100;2022-12-20T05:30:10;10.10;99.90
55642;DHT22;41509;53.108;6.100;2022-12-20T05:32:35;10.10;99.90
55642;DHT22;41509;53.108;6.100;2022-12-20T05:35:01;10.10;99.90
55642;DHT22;41509;53.108;6.100;2022-12-20T05:37:27;10.20;99.90
55642;DHT22;41509;53.108;6.100;2022-12-20T05:39:52;10.20;99.90
55642;DHT22;41509;53.108;6.100;2022-12-20T05:42:18;10.10;99.90
55642;DHT22;41509;53.108;6.100;2022-12-20T05:44:43;10.10;99.90
55642;DHT22;41509;53.108;6.100;2022-12-20T05:47:09;10.10;99.90
55642;DHT22;41509;53.108;6.100;2022-12-20T05:49:35;10.10;99.90
55642;DHT22;41509;53.108;6.100;2022-12-20T05:52:01;10.20;99.90
55642;DHT22;41509;53.108;6.100;2022-12-20T05:54:26;10.10;99.90
55642;DHT22;41509;53.108;6.100;2022-12-20T05:56:52;10.20;99.90
55642;DHT22;41509;53.108;6.100;2022-12-20T05:59:18;10.10;99.90
55642;DHT22;41509;53.108;6.100;2022-12-20T06:01:43;10.10;99.90
55642;DHT22;41509;53.108;6.100;2022-12-20T06:04:12;10.20;99.90
55642;DHT22;41509;53.108;6.100;2022-12-20T06:06:37;10.20;99.90
55642;DHT22;41509;53.108;6.100;2022-12-20T06:09:03;10.20;99.90
55642;DHT22;41509;53.108;6.100;2022-12-20T06:11:29;10.30;99.90
55642;DHT22;41509;53.108;6.100;2022-12-20T06:13:54;10.30;99.90
55642;DHT22;41509;53.108;6.100;2022-12-20T06:16:20;10.30;99.90
55642;DHT22;41509;53.108;6.100;2022-12-20T06:18:47;10.30;99.90
55642;DHT22;41509;53.108;6.100;2022-12-20T06:21:14;10.30;99.90
55642;DHT22;41509;53.108;6.100;2022-12-20T06:23:40;10.40;99.90
55642;DHT22;41509;53.108;6.100;2022-12-20T06:26:06;10.40;99.90
55642;DHT22;41509;53.108;6.100;2022-12-20T06:28:34;10.40;99.90
55642;DHT22;41509;53.108;6.100;2022-12-20T06:31:00;10.40;99.90
55642;DHT22;41509;53.108;6.100;2022-12-20T06:33:26;10.40;99.90
55642;DHT22;41509;53.108;6.100;2022-12-20T06:35:52;10.40;99.90
55642;DHT22;41509;53.108;6.100;2022-12-20T06:38:17;10.40;99.90
55642;DHT22;41509;53.108;6.100;2022-12-20T06:40:43;10.40;99.90
55642;DHT22;41509;53.108;6.100;2022-12-20T06:43:09;10.40;99.90
55642;DHT22;41509;53.108;6.100;2022-12-20T06:45:34;10.40;99.90
55642;DHT22;41509;53.108;6.100;2022-12-20T06:48:01;10.50;99.90
55642;DHT22;41509;53.108;6.100;2022-12-20T06:50:26;10.40;99.90
55642;DHT22;41509;53.108;6.100;2022-12-20T06:52:52;10.40;99.90
55642;DHT22;41509;53.108;6.100;2022-12-20T06:55:18;10.40;99.90
55642;DHT22;41509;53.108;6.100;2022-12-20T06:57:44;10.40;99.90
55642;DHT22;41509;53.108;6.100;2022-12-20T07:00:13;10.40;99.90
55642;DHT22;41509;53.108;6.100;2022-12-20T07:02:39;10.40;99.90
55642;DHT22;41509;53.108;6.100;2022-12-20T07:05:05;10.40;99.90
55642;DHT22;41509;53.108;6.100;2022-12-20T07:07:31;10.40;99.90
55642;DHT22;41509;53.108;6.100;2022-12-20T07:09:57;10.40;99.90
55642;DHT22;41509;53.108;6.100;2022-12-20T07:12:23;10.40;99.90
55642;DHT22;41509;53.108;6.100;2022-12-20T07:14:49;10.30;99.90
55642;DHT22;41509;53.108;6.100;2022-12-20T07:17:15;10.30;99.90
55642;DHT22;41509;53.108;6.100;2022-12-20T07:19:41;10.30;99.90
55642;DHT22;41509;53.108;6.100;2022-12-20T07:22:07;10.30;99.90
55642;DHT22;41509;53.108;6.100;2022-12-20T07:24:33;10.30;99.90
55642;DHT22;41509;53.108;6.100;2022-12-20T07:27:00;10.30;99.90
55642;DHT22;41509;53.108;6.100;2022-12-20T07:29:25;10.30;99.90
55642;DHT22;41509;53.108;6.100;2022-12-20T07:31:51;10.30;99.90
55642;DHT22;41509;53.108;6.100;2022-12-20T07:34:17;10.30;99.90
55642;DHT22;41509;53.108;6.100;2022-12-20T07:36:43;10.30;99.90
55642;DHT22;41509;53.108;6.100;2022-12-20T07:39:09;10.30;99.90
55642;DHT22;41509;53.108;6.100;2022-12-20T07:41:35;10.30;99.90
55642;DHT22;41509;53.108;6.100;2022-12-20T07:44:01;10.30;99.90
55642;DHT22;41509;53.108;6.100;2022-12-20T07:46:27;10.30;99.90
55642;DHT22;41509;53.108;6.100;2022-12-20T07:48:52;10.30;99.90
55642;DHT22;41509;53.108;6.100;2022-12-20T07:51:36;10.30;99.90
55642;DHT22;41509;53.108;6.100;2022-12-20T07:54:09;10.30;99.90
55642;DHT22;41509;53.108;6.100;2022-12-20T07:56:38;10.40;99.90
55642;DHT22;41509;53.108;6.100;2022-12-20T07:59:05;10.40;99.90
55642;DHT22;41509;53.108;6.100;2022-12-20T08:01:32;10.40;99.90
55642;DHT22;41509;53.108;6.100;2022-12-20T08:04:03;10.40;99.90
55642;DHT22;41509;53.108;6.100;2022-12-20T08:06:31;10.40;99.90
55642;DHT22;41509;53.108;6.100;2022-12-20T08:08:59;10.40;99.90
55642;DHT22;41509;53.108;6.100;2022-12-20T08:11:28;10.40;99.90
55642;DHT22;41509;53.108;6.100;2022-12-20T08:13:56;10.40;99.90
55642;DHT22;41509;53.108;6.100;2022-12-20T08:16:22;10.50;99.90
55642;DHT22;41509;53.108;6.100;2022-12-20T08:18:47;10.50;99.90
55642;DHT22;41509;53.108;6.100;2022-12-20T08:21:13;10.50;99.90
55642;DHT22;41509;53.108;6.100;2022-12-20T08:23:39;10.50;99.90
55642;DHT22;41509;53.108;6.100;2022-12-20T08:26:05;10.40;99.90
55642;DHT22;41509;53.108;6.100;2022-12-20T08:28:31;10.50;99.90
55642;DHT22;41509;53.108;6.100;2022-12-20T08:31:04;10.50;99.90
55642;DHT22;41509;53.108;6.100;2022-12-20T08:33:32;10.50;99.90
55642;DHT22;41509;53.108;6.100;2022-12-20T08:35:59;10.40;99.90
55642;DHT22;41509;53.108;6.100;2022-12-20T08:38:27;10.50;99.90
55642;DHT22;41509;53.108;6.100;2022-12-20T08:40:53;10.50;99.90
55642;DHT22;41509;53.108;6.100;2022-12-20T08:43:19;10.50;99.90
55642;DHT22;41509;53.108;6.100;2022-12-20T08:45:51;10.50;99.90
55642;DHT22;41509;53.108;6.100;2022-12-20T08:48:18;10.50;99.90
55642;DHT22;41509;53.108;6.100;2022-12-20T08:50:43;10.50;99.90
55642;DHT22;41509;53.108;6.100;2022-12-20T08:53:09;10.50;99.90
55642;DHT22;41509;53.108;6.100;2022-12-20T08:55:35;10.50;99.90
55642;DHT22;41509;53.108;6.100;2022-12-20T08:58:01;10.50;99.90
55642;DHT22;41509;53.108;6.100;2022-12-20T09:00:26;10.50;99.90
55642;DHT22;41509;53.108;6.100;2022-12-20T09:02:53;10.50;99.90
55642;DHT22;41509;53.108;6.100;2022-12-20T09:05:19;10.50;99.90
55642;DHT22;41509;53.108;6.100;2022-12-20T09:07:45;10.50;99.90
55642;DHT22;41509;53.108;6.100;2022-12-20T09:10:11;10.60;99.90
55642;DHT22;41509;53.108;6.100;2022-12-20T09:12:37;10.60;99.90
55642;DHT22;41509;53.108;6.100;2022-12-20T09:15:04;10.60;99.90
55642;DHT22;41509;53.108;6.100;2022-12-20T09:17:30;10.60;99.90
55642;DHT22;41509;53.108;6.100;2022-12-20T09:19:56;10.60;99.90
55642;DHT22;41509;53.108;6.100;2022-12-20T09:22:21;10.60;99.90
55642;DHT22;41509;53.108;6.100;2022-12-20T09:24:47;10.60;99.90
55642;DHT22;41509;53.108;6.100;2022-12-20T09:27:13;10.60;99.90
55642;DHT22;41509;53.108;6.100;2022-12-20T09:29:39;10.60;99.90
55642;DHT22;41509;53.108;6.100;2022-12-20T09:32:05;10.70;99.90
55642;DHT22;41509;53.108;6.100;2022-12-20T09:34:31;10.60;99.90
55642;DHT22;41509;53.108;6.100;2022-12-20T09:36:56;10.70;99.90
55642;DHT22;41509;53.108;6.100;2022-12-20T09:39:22;10.70;99.90
55642;DHT22;41509;53.108;6.100;2022-12-20T09:41:48;10.70;99.90
55642;DHT22;41509;53.108;6.100;2022-12-20T09:46:43;10.80;99.90
55642;DHT22;41509;53.108;6.100;2022-12-20T09:49:14;10.90;99.90
55642;DHT22;41509;53.108;6.100;2022-12-20T09:57:04;10.80;99.90
55642;DHT22;41509;53.108;6.100;2022-12-20T09:59:34;10.80;99.90
55642;DHT22;41509;53.108;6.100;2022-12-20T10:02:08;10.80;99.90
55642;DHT22;41509;53.108;6.100;2022-12-20T10:04:37;10.80;99.90
55642;DHT22;41509;53.108;6.100;2022-12-20T10:21:51;10.80;99.90
55642;DHT22;41509;53.108;6.100;2022-12-20T10:24:28;10.80;99.90
55642;DHT22;41509;53.108;6.100;2022-12-20T10:26:57;10.80;99.90
55642;DHT22;41509;53.108;6.100;2022-12-20T10:29:26;10.80;99.90
55642;DHT22;41509;53.108;6.100;2022-12-20T10:31:58;10.80;99.90
55642;DHT22;41509;53.108;6.100;2022-12-20T10:34:25;10.90;99.90
55642;DHT22;41509;53.108;6.100;2022-12-20T10:37:13;10.90;99.90
55642;DHT22;41509;53.108;6.100;2022-12-20T10:39:47;10.90;99.90
55642;DHT22;41509;53.108;6.100;2022-12-20T10:42:37;10.80;99.90
55642;DHT22;41509;53.108;6.100;2022-12-20T10:47:41;10.80;99.90
55642;DHT22;41509;53.108;6.100;2022-12-20T10:50:28;10.80;99.90
55642;DHT22;41509;53.108;6.100;2022-12-20T10:55:41;10.80;99.90
55642;DHT22;41509;53.108;6.100;2022-12-20T11:01:21;10.80;99.90
55642;DHT22;41509;53.108;6.100;2022-12-20T11:04:06;10.80;99.90
55642;DHT22;41509;53.108;6.100;2022-12-20T11:09:35;10.80;99.90
55642;DHT22;41509;53.108;6.100;2022-12-20T11:14:35;10.80;99.90
55642;DHT22;41509;53.108;6.100;2022-12-20T11:20:20;10.80;99.90
55642;DHT22;41509;53.108;6.100;2022-12-20T11:23:09;10.80;99.90
55642;DHT22;41509;53.108;6.100;2022-12-20T11:26:03;10.80;99.90
55642;DHT22;41509;53.108;6.100;2022-12-20T11:28:59;10.70;99.90
55642;DHT22;41509;53.108;6.100;2022-12-20T11:36:50;10.70;99.90
55642;DHT22;41509;53.108;6.100;2022-12-20T11:50:42;10.60;99.90
55642;DHT22;41509;53.108;6.100;2022-12-20T11:53:19;10.60;99.90
55642;DHT22;41509;53.108;6.100;2022-12-20T11:55:48;10.60;99.90
55642;DHT22;41509;53.108;6.100;2022-12-20T12:01:06;10.60;99.90
55642;DHT22;41509;53.108;6.100;2022-12-20T12:03:37;10.60;99.90
55642;DHT22;41509;53.108;6.100;2022-12-20T12:08:48;10.60;99.90
55642;DHT22;41509;53.108;6.100;2022-12-20T12:11:24;10.50;99.90
55642;DHT22;41509;53.108;6.100;2022-12-20T12:13:52;10.50;99.90
55642;DHT22;41509;53.108;6.100;2022-12-20T12:18:58;10.50;99.90
55642;DHT22;41509;53.108;6.100;2022-12-20T12:21:48;10.50;99.90
55642;DHT22;41509;53.108;6.100;2022-12-20T12:24:34;10.50;99.90
55642;DHT22;41509;53.108;6.100;2022-12-20T12:27:03;10.50;99.90
55642;DHT22;41509;53.108;6.100;2022-12-20T12:29:31;10.50;99.90
55642;DHT22;41509;53.108;6.100;2022-12-20T12:32:13;10.40;99.90
55642;DHT22;41509;53.108;6.100;2022-12-20T12:35:10;10.40;99.90
55642;DHT22;41509;53.108;6.100;2022-12-20T12:37:56;10.40;99.90
55642;DHT22;41509;53.108;6.100;2022-12-20T12:40:46;10.40;99.90
55642;DHT22;41509;53.108;6.100;2022-12-20T12:46:08;10.40;99.90
55642;DHT22;41509;53.108;6.100;2022-12-20T12:48:59;10.40;99.90
55642;DHT22;41509;53.108;6.100;2022-12-20T12:51:33;10.40;99.90
55642;DHT22;41509;53.108;6.100;2022-12-20T12:54:21;10.40;99.90
55642;DHT22;41509;53.108;6.100;2022-12-20T12:56:48;10.40;99.90
55642;DHT22;41509;53.108;6.100;2022-12-20T13:05:33;10.50;99.90
55642;DHT22;41509;53.108;6.100;2022-12-20T13:07:41;10.50;99.90
55642;DHT22;41509;53.108;6.100;2022-12-20T13:17:54;10.50;99.90
55642;DHT22;41509;53.108;6.100;2022-12-20T13:20:32;10.50;99.90
55642;DHT22;41509;53.108;6.100;2022-12-20T13:25:36;10.50;99.90
55642;DHT22;41509;53.108;6.100;2022-12-20T13:33:41;10.60;99.90
55642;DHT22;41509;53.108;6.100;2022-12-20T13:44:06;10.60;99.90
55642;DHT22;41509;53.108;6.100;2022-12-20T13:49:39;10.60;99.90
55642;DHT22;41509;53.108;6.100;2022-12-20T13:54:58;10.60;99.90
55642;DHT22;41509;53.108;6.100;2022-12-20T13:57:39;10.70;99.90
55642;DHT22;41509;53.108;6.100;2022-12-20T14:00:21;10.70;99.90
55642;DHT22;41509;53.108;6.100;2022-12-20T14:02:47;10.70;99.90
55642;DHT22;41509;53.108;6.100;2022-12-20T14:05:26;10.70;99.90
55642;DHT22;41509;53.108;6.100;2022-12-20T14:07:59;10.70;99.90
55642;DHT22;41509;53.108;6.100;2022-12-20T14:10:29;10.70;99.90
55642;DHT22;41509;53.108;6.100;2022-12-20T14:12:56;10.80;99.90
55642;DHT22;41509;53.108;6.100;2022-12-20T14:15:34;10.80;99.90
55642;DHT22;41509;53.108;6.100;2022-12-20T14:18:05;10.80;99.90
55642;DHT22;41509;53.108;6.100;2022-12-20T14:20:35;10.80;99.90
55642;DHT22;41509;53.108;6.100;2022-12-20T14:23:12;10.70;99.90
55642;DHT22;41509;53.108;6.100;2022-12-20T14:25:50;10.80;99.90
55642;DHT22;41509;53.108;6.100;2022-12-20T14:31:00;10.80;99.90
55642;DHT22;41509;53.108;6.100;2022-12-20T14:38:48;10.70;99.90
55642;DHT22;41509;53.108;6.100;2022-12-20T14:41:32;10.70;99.90
55642;DHT22;41509;53.108;6.100;2022-12-20T14:46:36;10.70;99.90
55642;DHT22;41509;53.108;6.100;2022-12-20T14:51:51;10.70;99.90
55642;DHT22;41509;53.108;6.100;2022-12-20T14:54:24;10.60;99.90
55642;DHT22;41509;53.108;6.100;2022-12-20T14:56:51;10.60;99.90
55642;DHT22;41509;53.108;6.100;2022-12-20T14:59:26;10.60;99.90
55642;DHT22;41509;53.108;6.100;2022-12-20T15:01:52;10.60;99.90
55642;DHT22;41509;53.108;6.100;2022-12-20T15:04:35;10.60;99.90
55642;DHT22;41509;53.108;6.100;2022-12-20T15:07:04;10.60;99.90
55642;DHT22;41509;53.108;6.100;2022-12-20T15:09:30;10.60;99.90
55642;DHT22;41509;53.108;6.100;2022-12-20T15:11:56;10.60;99.90
55642;DHT22;41509;53.108;6.100;2022-12-20T15:16:54;10.60;99.90
55642;DHT22;41509;53.108;6.100;2022-12-20T15:19:19;10.60;99.90
55642;DHT22;41509;53.108;6.100;2022-12-20T15:21:48;10.60;99.90
55642;DHT22;41509;53.108;6.100;2022-12-20T15:24:18;10.60;99.90
55642;DHT22;41509;53.108;6.100;2022-12-20T15:26:47;10.60;99.90
55642;DHT22;41509;53.108;6.100;2022-12-20T15:29:27;10.60;99.90
55642;DHT22;41509;53.108;6.100;2022-12-20T15:34:36;10.50;99.90
55642;DHT22;41509;53.108;6.100;2022-12-20T15:37:05;10.50;99.90
55642;DHT22;41509;53.108;6.100;2022-12-20T15:39:31;10.50;99.90
55642;DHT22;41509;53.108;6.100;2022-12-20T15:42:05;10.50;99.90
55642;DHT22;41509;53.108;6.100;2022-12-20T15:44:32;10.50;99.90
55642;DHT22;41509;53.108;6.100;2022-12-20T15:47:01;10.50;99.90
55642;DHT22;41509;53.108;6.100;2022-12-20T15:49:31;10.40;99.90
55642;DHT22;41509;53.108;6.100;2022-12-20T15:51:57;10.40;99.90
55642;DHT22;41509;53.108;6.100;2022-12-20T15:54:34;10.40;99.90
55642;DHT22;41509;53.108;6.100;2022-12-20T15:57:05;10.40;99.90
55642;DHT22;41509;53.108;6.100;2022-12-20T15:59:34;10.30;99.90
55642;DHT22;41509;53.108;6.100;2022-12-20T16:02:01;10.30;99.90
55642;DHT22;41509;53.108;6.100;2022-12-20T16:04:27;10.30;99.90
55642;DHT22;41509;53.108;6.100;2022-12-20T16:06:55;10.30;99.90
55642;DHT22;41509;53.108;6.100;2022-12-20T16:09:21;10.30;99.90
55642;DHT22;41509;53.108;6.100;2022-12-20T16:11:50;10.30;99.90
55642;DHT22;41509;53.108;6.100;2022-12-20T16:14:18;10.30;99.90
55642;DHT22;41509;53.108;6.100;2022-12-20T16:16:48;10.30;99.90
55642;DHT22;41509;53.108;6.100;2022-12-20T16:19:15;10.30;99.90
55642;DHT22;41509;53.108;6.100;2022-12-20T16:21:47;10.20;99.90
55642;DHT22;41509;53.108;6.100;2022-12-20T16:24:15;10.20;99.90
55642;DHT22;41509;53.108;6.100;2022-12-20T16:26:41;10.20;99.90
55642;DHT22;41509;53.108;6.100;2022-12-20T16:29:07;10.20;99.90
55642;DHT22;41509;53.108;6.100;2022-12-20T16:31:38;10.20;99.90
55642;DHT22;41509;53.108;6.100;2022-12-20T16:34:17;10.20;99.90
55642;DHT22;41509;53.108;6.100;2022-12-20T16:36:43;10.20;99.90
55642;DHT22;41509;53.108;6.100;2022-12-20T16:39:09;10.10;99.90
55642;DHT22;41509;53.108;6.100;2022-12-20T16:41:36;10.10;99.90
55642;DHT22;41509;53.108;6.100;2022-12-20T16:44:04;10.10;99.90
55642;DHT22;41509;53.108;6.100;2022-12-20T16:46:31;10.10;99.90
55642;DHT22;41509;53.108;6.100;2022-12-20T16:48:58;10.10;99.90
55642;DHT22;41509;53.108;6.100;2022-12-20T16:54:02;10.10;99.90
55642;DHT22;41509;53.108;6.100;2022-12-20T16:56:28;10.10;99.90
55642;DHT22;41509;53.108;6.100;2022-12-20T16:59:03;10.00;99.90
55642;DHT22;41509;53.108;6.100;2022-12-20T17:01:31;10.10;99.90
55642;DHT22;41509;53.108;6.100;2022-12-20T17:04:01;10.10;99.90
55642;DHT22;41509;53.108;6.100;2022-12-20T17:06:30;10.00;99.90
55642;DHT22;41509;53.108;6.100;2022-12-20T17:08:56;10.10;99.90
55642;DHT22;41509;53.108;6.100;2022-12-20T17:11:25;10.00;99.90
55642;DHT22;41509;53.108;6.100;2022-12-20T17:13:57;10.00;99.90
55642;DHT22;41509;53.108;6.100;2022-12-20T17:16:44;10.00;99.90
55642;DHT22;41509;53.108;6.100;2022-12-20T17:19:26;10.00;99.90
55642;DHT22;41509;53.108;6.100;2022-12-20T17:22:24;10.00;99.90
55642;DHT22;41509;53.108;6.100;2022-12-20T17:28:02;10.00;99.90
55642;DHT22;41509;53.108;6.100;2022-12-20T17:30:36;10.00;99.90
55642;DHT22;41509;53.108;6.100;2022-12-20T17:33:36;9.90;99.90
55642;DHT22;41509;53.108;6.100;2022-12-20T17:36:04;10.00;99.90
55642;DHT22;41509;53.108;6.100;2022-12-20T17:38:39;9.90;99.90
55642;DHT22;41509;53.108;6.100;2022-12-20T17:41:34;9.80;99.90
55642;DHT22;41509;53.108;6.100;2022-12-20T17:44:16;9.90;99.90
55642;DHT22;41509;53.108;6.100;2022-12-20T17:47:02;9.90;99.90
55642;DHT22;41509;53.108;6.100;2022-12-20T17:49:33;9.90;99.90
55642;DHT22;41509;53.108;6.100;2022-12-20T17:55:08;9.90;99.90
55642;DHT22;41509;53.108;6.100;2022-12-20T17:57:52;9.90;99.90
55642;DHT22;41509;53.108;6.100;2022-12-20T18:00:58;10.00;99.90
55642;DHT22;41509;53.108;6.100;2022-12-20T18:03:27;9.90;99.90
55642;DHT22;41509;53.108;6.100;2022-12-20T18:06:10;9.80;99.90
55642;DHT22;41509;53.108;6.100;2022-12-20T18:09:14;9.80;99.90
55642;DHT22;41509;53.108;6.100;2022-12-20T18:11:54;9.80;99.90
55642;DHT22;41509;53.108;6.100;2022-12-20T18:14:31;9.80;99.90